createdAt,value
2023-02-19T00:02:08.379Z,99824.56
2023-02-19T00:04:35.222Z,99814.53
2023-02-19T00:07:02.121Z,99812.97
2023-02-19T00:09:29.061Z,99828.38
2023-02-19T00:11:55.953Z,99825.66
2023-02-19T00:14:22.870Z,99808.91
2023-02-19T00:16:49.858Z,99805.13
2023-02-19T00:19:19.831Z,99805.16
2023-02-19T00:21:47.607Z,99805.38
2023-02-19T00:24:15.380Z,99798.09
2023-02-19T00:26:43.488Z,99799.63
2023-02-19T00:29:14.336Z,99796.66
2023-02-19T00:31:42.531Z,99796.81
2023-02-19T00:34:10.552Z,99803.59
2023-02-19T00:36:39.520Z,99803.31
2023-02-19T00:39:08.685Z,99798.63
2023-02-19T00:41:35.531Z,99796.81
2023-02-19T00:44:06.504Z,99795.69
2023-02-19T00:46:39.849Z,99788.09
2023-02-19T00:49:08.681Z,99787.69
2023-02-19T00:51:38.135Z,99791.22
2023-02-19T00:54:05.980Z,99782.03
2023-02-19T00:56:33.548Z,99774.13
2023-02-19T00:59:01.466Z,99764.81
2023-02-19T01:01:28.291Z,99766.28
2023-02-19T01:03:55.747Z,99762.91
2023-02-19T01:06:23.411Z,99770.88
2023-02-19T01:08:50.721Z,99760.81
2023-02-19T01:11:18.692Z,99766.28
2023-02-19T01:13:45.668Z,99763.03
2023-02-19T01:16:15.454Z,99765.69
2023-02-19T01:18:42.856Z,99745.06
2023-02-19T01:21:14.778Z,99769.25
2023-02-19T01:23:42.248Z,99733.59
2023-02-19T01:26:12.925Z,99742.44
2023-02-19T01:28:40.090Z,99758.06
2023-02-19T01:31:11.212Z,99739.59
2023-02-19T01:33:38.356Z,99762.75
2023-02-19T01:36:07.291Z,99733.97
2023-02-19T01:38:34.218Z,99741.59
2023-02-19T01:41:04.135Z,99744.38
2023-02-19T01:43:54.800Z,99742.66
2023-02-19T01:46:21.790Z,99753.06
2023-02-19T01:48:48.660Z,99735.75
2023-02-19T01:51:19.695Z,99746.06
2023-02-19T01:53:53.335Z,99718.56
2023-02-19T01:56:21.938Z,99731.47
2023-02-19T01:58:49.387Z,99723.97
2023-02-19T02:01:16.292Z,99721.66
2023-02-19T02:03:45.578Z,99734.44
2023-02-19T02:06:30.358Z,99731.69
2023-02-19T02:09:17.911Z,99736.78
2023-02-19T02:11:49.554Z,99730.03
2023-02-19T02:14:25.732Z,99737.59
2023-02-19T02:17:21.264Z,99732.19
2023-02-19T02:20:26.320Z,99735.34
2023-02-19T02:23:30.369Z,99735.34
2023-02-19T02:26:24.342Z,99737.81
2023-02-19T02:29:04.035Z,99742.28
2023-02-19T02:31:39.655Z,99747.00
2023-02-19T02:34:14.421Z,99738.56
2023-02-19T02:36:44.878Z,99753.53
2023-02-19T02:39:19.935Z,99743.41
2023-02-19T02:42:15.638Z,99738.25
2023-02-19T02:45:20.521Z,99734.53
2023-02-19T02:47:56.600Z,99750.81
2023-02-19T02:50:34.394Z,99747.63
2023-02-19T02:53:24.267Z,99750.50
2023-02-19T02:55:53.482Z,99748.38
2023-02-19T02:58:24.916Z,99760.81
2023-02-19T03:01:18.394Z,99757.63
2023-02-19T03:03:48.211Z,99758.47
2023-02-19T03:06:19.986Z,99768.31
2023-02-19T03:08:55.025Z,99761.25
2023-02-19T03:11:40.471Z,99780.06
2023-02-19T03:14:29.860Z,99763.88
2023-02-19T03:17:22.420Z,99784.84
2023-02-19T03:19:53.369Z,99778.66
2023-02-19T03:22:25.969Z,99793.28
2023-02-19T03:25:25.716Z,99788.22
2023-02-19T03:27:54.429Z,99796.25
2023-02-19T03:30:25.734Z,99798.03
2023-02-19T03:32:59.690Z,99791.50
2023-02-19T03:35:37.733Z,99795.09
2023-02-19T03:38:13.534Z,99782.47
2023-02-19T03:41:05.680Z,99781.72
2023-02-19T03:43:53.760Z,99794.56
2023-02-19T03:46:29.477Z,99796.47
2023-02-19T03:49:01.892Z,99789.38
2023-02-19T03:51:39.349Z,99784.97
2023-02-19T03:54:23.816Z,99769.66
2023-02-19T03:56:58.967Z,99782.94
2023-02-19T03:59:51.539Z,99783.50
2023-02-19T04:02:33.974Z,99769.66
2023-02-19T04:05:08.272Z,99784.75
2023-02-19T04:07:41.579Z,99803.59
2023-02-19T04:10:10.488Z,99800.00
2023-02-19T04:12:50.465Z,99821.06
2023-02-19T04:15:23.467Z,99819.53
2023-02-19T04:18:03.011Z,99818.06
2023-02-19T04:20:34.926Z,99820.22
2023-02-19T04:23:01.917Z,99806.59
2023-02-19T04:25:30.004Z,99799.16
2023-02-19T04:27:57.074Z,99788.84
2023-02-19T04:30:23.938Z,99799.47
2023-02-19T04:32:51.288Z,99801.81
2023-02-19T04:35:18.115Z,99808.41
2023-02-19T04:37:44.966Z,99828.81
2023-02-19T04:40:11.959Z,99822.22
2023-02-19T04:42:38.762Z,99820.38
2023-02-19T04:45:05.992Z,99808.69
2023-02-19T04:47:33.310Z,99818.75
2023-02-19T04:50:00.170Z,99817.81
2023-02-19T04:52:27.039Z,99807.69
2023-02-19T04:54:53.848Z,99811.53
2023-02-19T04:57:20.771Z,99812.28
2023-02-19T04:59:47.701Z,99812.34
2023-02-19T05:02:14.499Z,99835.84
2023-02-19T05:04:41.568Z,99838.03
2023-02-19T05:07:08.686Z,99846.94
2023-02-19T05:09:35.585Z,99846.34
2023-02-19T05:12:02.705Z,99857.66
2023-02-19T05:14:29.546Z,99847.22
2023-02-19T05:16:56.357Z,99857.09
2023-02-19T05:19:23.247Z,99859.00
2023-02-19T05:21:50.090Z,99854.66
2023-02-19T05:24:16.919Z,99837.50
2023-02-19T05:26:45.443Z,99841.34
2023-02-19T05:29:12.389Z,99846.91
2023-02-19T05:31:39.516Z,99864.88
2023-02-19T05:34:06.421Z,99870.66
2023-02-19T05:36:33.852Z,99865.94
2023-02-19T05:39:00.829Z,99873.38
2023-02-19T05:41:31.234Z,99870.63
2023-02-19T05:44:03.518Z,99871.06
2023-02-19T05:46:33.217Z,99898.47
2023-02-19T05:49:00.135Z,99907.53
2023-02-19T05:51:27.820Z,99903.38
2023-02-19T05:53:56.382Z,99915.16
2023-02-19T05:56:40.477Z,99922.50
2023-02-19T05:59:16.448Z,99925.59
2023-02-19T06:01:43.885Z,99925.19
2023-02-19T06:04:11.859Z,99929.31
2023-02-19T06:06:39.298Z,99923.75
2023-02-19T06:09:06.937Z,99937.75
2023-02-19T06:11:36.466Z,99932.34
2023-02-19T06:14:03.649Z,99935.88
2023-02-19T06:16:38.903Z,99950.25
2023-02-19T06:19:10.973Z,99942.56
2023-02-19T06:21:38.035Z,99947.59
2023-02-19T06:24:08.174Z,99942.81
2023-02-19T06:26:35.628Z,99932.78
2023-02-19T06:29:02.817Z,99934.41
2023-02-19T06:31:29.988Z,99919.41
2023-02-19T06:33:56.974Z,99914.56
2023-02-19T06:36:25.028Z,99929.78
2023-02-19T06:38:51.917Z,99928.38
2023-02-19T06:41:19.453Z,99929.34
2023-02-19T06:43:46.776Z,99936.66
2023-02-19T06:46:14.142Z,99924.75
2023-02-19T06:48:44.327Z,99929.81
2023-02-19T06:51:18.869Z,99925.53
2023-02-19T06:53:46.314Z,99929.75
2023-02-19T06:56:31.507Z,99923.59
2023-02-19T06:59:00.534Z,99921.69
2023-02-19T07:01:29.596Z,99918.78
2023-02-19T07:03:56.722Z,99911.28
2023-02-19T07:06:25.168Z,99924.69
2023-02-19T07:08:53.047Z,99928.28
2023-02-19T07:11:20.028Z,99927.63
2023-02-19T07:13:47.043Z,99931.47
2023-02-19T07:16:14.564Z,99941.19
2023-02-19T07:18:41.376Z,99934.63
2023-02-19T07:21:13.393Z,99929.63
2023-02-19T07:23:43.449Z,99933.94
2023-02-19T07:26:13.128Z,99935.31
2023-02-19T07:28:48.075Z,99931.66
2023-02-19T07:31:16.205Z,99927.16
2023-02-19T07:33:44.725Z,99923.97
2023-02-19T07:36:12.322Z,99920.31
2023-02-19T07:38:40.023Z,99918.53
2023-02-19T07:41:07.370Z,99922.16
2023-02-19T07:43:36.541Z,99908.84
2023-02-19T07:46:08.999Z,99910.22
2023-02-19T07:48:37.316Z,99922.63
2023-02-19T07:51:05.932Z,99919.13
2023-02-19T07:53:35.207Z,99921.78
2023-02-19T07:56:04.721Z,99894.69
2023-02-19T07:58:31.989Z,99901.03
2023-02-19T08:01:07.456Z,99896.13
2023-02-19T08:03:35.563Z,99880.34
2023-02-19T08:06:02.475Z,99881.28
2023-02-19T08:08:29.583Z,99875.81
2023-02-19T08:11:19.388Z,99871.22
2023-02-19T08:13:48.237Z,99870.19
2023-02-19T08:16:29.663Z,99872.41
2023-02-19T08:19:04.306Z,99865.63
2023-02-19T08:21:33.418Z,99874.47
2023-02-19T08:24:01.558Z,99881.63
2023-02-19T08:26:28.396Z,99888.22
2023-02-19T08:28:55.197Z,99880.19
2023-02-19T08:31:22.116Z,99888.03
2023-02-19T08:33:49.137Z,99885.28
2023-02-19T08:36:16.214Z,99884.22
2023-02-19T08:38:43.628Z,99881.44
2023-02-19T08:41:12.821Z,99873.34
2023-02-19T08:43:43.425Z,99873.09
2023-02-19T08:46:11.768Z,99872.41
2023-02-19T08:48:39.483Z,99873.22
2023-02-19T08:51:10.210Z,99876.75
2023-02-19T08:53:38.581Z,99877.81
2023-02-19T08:56:11.074Z,99867.72
2023-02-19T08:58:38.475Z,99859.06
2023-02-19T09:01:10.834Z,99857.56
2023-02-19T09:03:38.020Z,99852.31
2023-02-19T09:06:05.091Z,99844.44
2023-02-19T09:08:31.957Z,99849.78
2023-02-19T09:11:00.702Z,99851.09
2023-02-19T09:13:27.747Z,99830.72
2023-02-19T09:15:54.723Z,99821.97
2023-02-19T09:18:21.656Z,99837.69
2023-02-19T09:20:48.477Z,99821.72
2023-02-19T09:23:15.359Z,99828.25
2023-02-19T09:25:42.241Z,99821.41
2023-02-19T09:28:09.620Z,99823.69
2023-02-19T09:30:36.564Z,99819.84
2023-02-19T09:33:05.810Z,99809.19
2023-02-19T09:35:32.754Z,99812.00
2023-02-19T09:38:01.100Z,99813.63
2023-02-19T09:40:28.135Z,99811.25
2023-02-19T09:42:55.044Z,99818.94
2023-02-19T09:45:25.742Z,99816.09
2023-02-19T09:47:58.269Z,99818.84
2023-02-19T09:50:37.178Z,99818.47
2023-02-19T09:53:11.971Z,99818.59
2023-02-19T09:55:42.576Z,99820.25
2023-02-19T09:58:22.618Z,99802.72
2023-02-19T10:00:52.023Z,99799.03
2023-02-19T10:03:33.821Z,99794.63
2023-02-19T10:06:14.494Z,99801.84
2023-02-19T10:08:42.802Z,99800.81
2023-02-19T10:11:12.608Z,99808.44
2023-02-19T10:13:51.065Z,99797.13
2023-02-19T10:16:22.730Z,99787.06
2023-02-19T10:18:49.785Z,99788.69
2023-02-19T10:21:24.498Z,99787.13
2023-02-19T10:23:55.886Z,99779.47
2023-02-19T10:26:23.712Z,99787.38
2023-02-19T10:28:50.611Z,99781.13
2023-02-19T10:31:23.674Z,99775.94
2023-02-19T10:33:52.830Z,99769.13
2023-02-19T10:36:33.029Z,99755.75
2023-02-19T10:39:02.154Z,99749.38
2023-02-19T10:41:30.084Z,99737.59
2023-02-19T10:44:21.062Z,99736.31
2023-02-19T10:46:52.222Z,99737.75
2023-02-19T10:49:37.443Z,99740.63
2023-02-19T10:52:17.861Z,99739.53
2023-02-19T10:54:46.728Z,99739.63
2023-02-19T10:57:19.191Z,99740.06
2023-02-19T10:59:50.731Z,99721.03
2023-02-19T11:02:20.657Z,99708.13
2023-02-19T11:05:15.238Z,99718.03
2023-02-19T11:08:20.674Z,99709.16
2023-02-19T11:10:49.652Z,99707.59
2023-02-19T11:13:27.072Z,99710.50
2023-02-19T11:15:55.463Z,99705.72
2023-02-19T11:18:28.063Z,99695.94
2023-02-19T11:20:57.760Z,99695.59
2023-02-19T11:23:36.545Z,99691.75
2023-02-19T11:26:06.617Z,99684.94
2023-02-19T11:28:36.727Z,99677.09
2023-02-19T11:31:27.981Z,99677.47
2023-02-19T11:33:56.408Z,99668.69
2023-02-19T11:36:23.221Z,99667.13
2023-02-19T11:38:50.079Z,99666.16
2023-02-19T11:41:47.818Z,99662.94
2023-02-19T11:44:30.204Z,99662.47
2023-02-19T11:47:34.238Z,99656.56
2023-02-19T11:50:12.794Z,99669.44
2023-02-19T11:52:49.096Z,99649.94
2023-02-19T11:55:42.950Z,99655.06
2023-02-19T11:58:38.396Z,99647.59
2023-02-19T12:01:17.028Z,99650.84
2023-02-19T12:04:21.759Z,99650.69
2023-02-19T12:06:51.494Z,99637.69
2023-02-19T12:09:36.743Z,99645.03
2023-02-19T12:12:18.678Z,99643.00
2023-02-19T12:15:02.897Z,99633.72
2023-02-19T12:18:04.218Z,99630.66
2023-02-19T12:20:58.892Z,99630.56
2023-02-19T12:23:43.746Z,99639.56
2023-02-19T12:26:21.143Z,99651.47
2023-02-19T12:29:00.658Z,99637.28
2023-02-19T12:31:55.276Z,99630.88
2023-02-19T12:34:31.137Z,99631.97
2023-02-19T12:37:27.942Z,99638.84
2023-02-19T12:40:23.948Z,99632.44
2023-02-19T12:42:56.620Z,99633.22
2023-02-19T12:45:38.828Z,99630.66
2023-02-19T12:48:34.023Z,99618.03
2023-02-19T12:51:21.671Z,99629.81
2023-02-19T12:54:01.615Z,99629.25
2023-02-19T12:56:34.717Z,99620.00
2023-02-19T12:59:12.316Z,99630.41
2023-02-19T13:01:47.932Z,99631.22
2023-02-19T13:04:37.425Z,99632.16
2023-02-19T13:07:17.035Z,99633.44
2023-02-19T13:10:10.145Z,99639.34
2023-02-19T13:12:44.255Z,99632.41
2023-02-19T13:15:38.752Z,99619.66
2023-02-19T13:18:13.810Z,99619.25
2023-02-19T13:20:46.678Z,99611.16
2023-02-19T13:23:41.314Z,99618.66
2023-02-19T13:26:30.923Z,99621.47
2023-02-19T13:29:03.498Z,99622.13
2023-02-19T13:31:45.362Z,99616.25
2023-02-19T13:34:36.551Z,99612.22
2023-02-19T13:37:04.483Z,99603.75
2023-02-19T13:39:31.512Z,99606.22
2023-02-19T13:41:59.422Z,99609.44
2023-02-19T13:44:28.866Z,99600.25
2023-02-19T13:46:56.710Z,99594.03
2023-02-19T13:49:29.693Z,99599.84
2023-02-19T13:52:00.449Z,99599.56
2023-02-19T13:54:40.048Z,99588.97
2023-02-19T13:57:22.571Z,99592.56
2023-02-19T13:59:54.390Z,99593.03
2023-02-19T14:02:21.285Z,99595.06
2023-02-19T14:04:51.961Z,99592.91
2023-02-19T14:07:18.809Z,99589.06
2023-02-19T14:09:46.794Z,99594.25
2023-02-19T14:12:15.708Z,99592.63
2023-02-19T14:14:55.106Z,99587.97
2023-02-19T14:17:43.806Z,99584.50
2023-02-19T14:20:16.400Z,99582.28
2023-02-19T14:23:03.779Z,99580.06
2023-02-19T14:25:43.770Z,99581.06
2023-02-19T14:28:10.617Z,99583.78
2023-02-19T14:30:49.420Z,99582.03
2023-02-19T14:33:19.578Z,99585.41
2023-02-19T14:35:49.166Z,99583.38
2023-02-19T14:38:59.219Z,99585.25
2023-02-19T14:41:30.225Z,99581.88
2023-02-19T14:44:00.395Z,99584.19
2023-02-19T14:46:43.915Z,99577.22
2023-02-19T14:49:25.807Z,99588.38
2023-02-19T14:52:00.044Z,99580.16
2023-02-19T14:54:42.090Z,99580.94
2023-02-19T14:57:25.833Z,99578.31
2023-02-19T14:59:58.738Z,99574.16
2023-02-19T15:02:27.496Z,99579.25
2023-02-19T15:04:55.232Z,99573.38
2023-02-19T15:07:30.293Z,99574.84
2023-02-19T15:10:05.855Z,99576.59
2023-02-19T15:12:40.156Z,99584.72
2023-02-19T15:15:07.616Z,99582.81
2023-02-19T15:17:37.194Z,99583.31
2023-02-19T15:20:12.399Z,99571.53
2023-02-19T15:22:41.683Z,99573.66
2023-02-19T15:25:20.191Z,99568.72
2023-02-19T15:27:47.662Z,99568.44
2023-02-19T15:30:31.256Z,99571.47
2023-02-19T15:33:01.119Z,99576.38
2023-02-19T15:35:30.367Z,99575.09
2023-02-19T15:37:57.355Z,99574.09
2023-02-19T15:40:31.231Z,99576.25
2023-02-19T15:43:00.135Z,99585.38
2023-02-19T15:45:37.778Z,99584.31
2023-02-19T15:48:09.592Z,99583.91
2023-02-19T15:50:39.370Z,99578.22
2023-02-19T15:53:16.854Z,99577.72
2023-02-19T15:56:09.949Z,99577.53
2023-02-19T15:58:45.688Z,99586.44
2023-02-19T16:01:25.426Z,99579.56
2023-02-19T16:03:56.071Z,99582.44
2023-02-19T16:06:25.785Z,99580.78
2023-02-19T16:08:52.527Z,99570.56
2023-02-19T16:11:47.724Z,99575.09
2023-02-19T16:14:25.202Z,99577.09
2023-02-19T16:17:09.969Z,99581.94
2023-02-19T16:19:44.533Z,99572.22
2023-02-19T16:22:18.858Z,99569.56
2023-02-19T16:24:48.099Z,99572.59
2023-02-19T16:27:47.586Z,99570.75
2023-02-19T16:30:17.633Z,99564.50
2023-02-19T16:32:46.997Z,99565.16
2023-02-19T16:35:36.845Z,99556.97
2023-02-19T16:38:03.518Z,99560.31
2023-02-19T16:40:40.961Z,99556.97
2023-02-19T16:43:26.615Z,99549.28
2023-02-19T16:45:53.825Z,99542.94
2023-02-19T16:48:23.052Z,99543.94
2023-02-19T16:50:50.222Z,99539.47
2023-02-19T16:53:22.423Z,99528.91
2023-02-19T16:55:49.400Z,99533.44
2023-02-19T16:58:16.191Z,99530.09
2023-02-19T17:00:43.499Z,99532.78
2023-02-19T17:03:17.694Z,99527.94
2023-02-19T17:05:45.055Z,99527.72
2023-02-19T17:08:37.153Z,99528.56
2023-02-19T17:11:07.236Z,99530.06
2023-02-19T17:13:34.092Z,99541.06
2023-02-19T17:16:01.349Z,99546.06
2023-02-19T17:18:28.646Z,99541.88
2023-02-19T17:21:05.603Z,99536.00
2023-02-19T17:23:32.380Z,99547.97
2023-02-19T17:25:59.213Z,99550.31
2023-02-19T17:28:26.186Z,99560.19
2023-02-19T17:30:53.117Z,99549.94
2023-02-19T17:33:19.936Z,99544.22
2023-02-19T17:35:46.742Z,99545.63
2023-02-19T17:38:14.742Z,99545.63
2023-02-19T17:40:41.586Z,99548.63
2023-02-19T17:43:08.568Z,99547.06
2023-02-19T17:45:35.587Z,99548.63
2023-02-19T17:48:02.523Z,99542.31
2023-02-19T17:50:31.597Z,99550.63
2023-02-19T17:52:59.140Z,99547.81
2023-02-19T17:55:26.641Z,99557.56
2023-02-19T17:57:54.056Z,99589.09
2023-02-19T18:00:27.452Z,99595.66
2023-02-19T18:02:54.619Z,99591.00
2023-02-19T18:05:22.482Z,99576.22
2023-02-19T18:07:50.162Z,99581.00
2023-02-19T18:10:19.105Z,99585.41
2023-02-19T18:12:46.184Z,99584.69
2023-02-19T18:15:26.934Z,99583.19
2023-02-19T18:17:54.993Z,99594.69
2023-02-19T18:20:24.609Z,99589.06
2023-02-19T18:22:51.729Z,99596.69
2023-02-19T18:25:19.674Z,99611.22
2023-02-19T18:27:47.341Z,99619.44
2023-02-19T18:30:18.448Z,99615.06
2023-02-19T18:32:48.203Z,99618.94
2023-02-19T18:35:17.007Z,99612.41
2023-02-19T18:37:43.874Z,99615.34
2023-02-19T18:40:11.593Z,99619.75
2023-02-19T18:42:40.031Z,99623.66
2023-02-19T18:45:08.074Z,99630.75
2023-02-19T18:47:34.916Z,99630.88
2023-02-19T18:50:01.852Z,99643.06
2023-02-19T18:52:28.655Z,99638.19
2023-02-19T18:54:57.443Z,99643.38
2023-02-19T18:57:26.295Z,99640.72
2023-02-19T18:59:53.187Z,99645.88
2023-02-19T19:02:20.154Z,99640.72
2023-02-19T19:04:52.456Z,99641.41
2023-02-19T19:07:20.679Z,99640.25
2023-02-19T19:09:48.156Z,99643.69
2023-02-19T19:12:15.596Z,99643.81
2023-02-19T19:14:43.059Z,99643.31
2023-02-19T19:17:10.138Z,99643.03
2023-02-19T19:19:36.990Z,99644.56
2023-02-19T19:22:03.918Z,99652.25
2023-02-19T19:24:30.794Z,99655.63
2023-02-19T19:26:57.918Z,99650.34
2023-02-19T19:29:25.085Z,99663.69
2023-02-19T19:31:52.047Z,99654.75
2023-02-19T19:34:19.362Z,99656.97
2023-02-19T19:36:47.169Z,99660.69
2023-02-19T19:39:14.229Z,99659.13
2023-02-19T19:41:41.145Z,99656.13
2023-02-19T19:44:08.865Z,99649.81
2023-02-19T19:46:42.328Z,99657.00
2023-02-19T19:49:09.215Z,99651.38
2023-02-19T19:51:36.189Z,99647.25
2023-02-19T19:54:05.828Z,99657.22
2023-02-19T19:56:32.833Z,99664.38
2023-02-19T19:58:59.714Z,99662.84
2023-02-19T20:01:26.581Z,99670.25
2023-02-19T20:03:53.468Z,99664.09
2023-02-19T20:06:26.188Z,99663.69
2023-02-19T20:08:53.169Z,99676.03
2023-02-19T20:11:20.144Z,99680.97
2023-02-19T20:13:47.042Z,99669.75
2023-02-19T20:16:14.720Z,99679.03
2023-02-19T20:18:42.231Z,99677.75
2023-02-19T20:21:10.677Z,99681.69
2023-02-19T20:23:40.687Z,99684.88
2023-02-19T20:26:07.814Z,99676.91
2023-02-19T20:28:34.811Z,99672.94
2023-02-19T20:31:01.642Z,99664.22
2023-02-19T20:33:28.533Z,99674.31
2023-02-19T20:35:57.009Z,99675.84
2023-02-19T20:38:24.002Z,99679.53
2023-02-19T20:40:50.869Z,99669.75
2023-02-19T20:43:17.930Z,99667.59
2023-02-19T20:45:46.560Z,99667.56
2023-02-19T20:48:17.634Z,99666.03
2023-02-19T20:50:44.684Z,99665.88
2023-02-19T20:53:14.665Z,99655.94
2023-02-19T20:55:41.609Z,99651.31
2023-02-19T20:58:08.592Z,99649.06
2023-02-19T21:00:35.440Z,99654.41
2023-02-19T21:03:02.305Z,99655.38
2023-02-19T21:05:29.334Z,99667.00
2023-02-19T21:07:56.144Z,99658.59
2023-02-19T21:10:23.172Z,99662.81
2023-02-19T21:12:52.155Z,99674.16
2023-02-19T21:15:20.157Z,99676.53
2023-02-19T21:17:47.475Z,99667.31
2023-02-19T21:20:15.030Z,99658.03
2023-02-19T21:22:41.894Z,99655.13
2023-02-19T21:25:08.749Z,99668.97
2023-02-19T21:27:35.619Z,99659.19
2023-02-19T21:30:03.253Z,99664.63
2023-02-19T21:32:30.144Z,99662.97
2023-02-19T21:34:57.134Z,99653.28
2023-02-19T21:37:23.968Z,99648.53
2023-02-19T21:39:50.919Z,99644.91
2023-02-19T21:42:17.917Z,99646.84
2023-02-19T21:44:44.718Z,99656.09
2023-02-19T21:47:12.690Z,99646.34
2023-02-19T21:49:41.856Z,99636.41
2023-02-19T21:52:09.293Z,99634.13
2023-02-19T21:54:36.188Z,99634.50
2023-02-19T21:57:03.730Z,99635.66
2023-02-19T21:59:30.593Z,99626.75
2023-02-19T22:01:57.404Z,99626.19
2023-02-19T22:04:24.672Z,99624.38
2023-02-19T22:06:54.770Z,99634.28
2023-02-19T22:09:21.752Z,99625.94
2023-02-19T22:11:48.581Z,99627.00
2023-02-19T22:14:15.579Z,99621.38
2023-02-19T22:16:42.464Z,99623.28
2023-02-19T22:19:12.149Z,99618.53
2023-02-19T22:21:43.841Z,99618.22
2023-02-19T22:24:19.768Z,99625.66
2023-02-19T22:26:50.662Z,99619.69
2023-02-19T22:29:18.169Z,99622.03
2023-02-19T22:31:45.249Z,99617.47
2023-02-19T22:34:12.269Z,99619.75
2023-02-19T22:36:39.824Z,99614.38
2023-02-19T22:39:08.491Z,99595.34
2023-02-19T22:41:35.655Z,99604.41
2023-02-19T22:44:02.646Z,99611.66
2023-02-19T22:46:31.190Z,99615.00
2023-02-19T22:48:58.775Z,99616.50
2023-02-19T22:51:26.092Z,99600.13
2023-02-19T22:53:55.257Z,99608.25
2023-02-19T22:56:25.886Z,99602.25
2023-02-19T22:58:54.239Z,99596.84
2023-02-19T23:01:21.618Z,99583.06
2023-02-19T23:03:50.634Z,99605.22
2023-02-19T23:06:21.104Z,99600.25
2023-02-19T23:08:47.964Z,99573.75
2023-02-19T23:11:24.442Z,99585.69
2023-02-19T23:13:52.042Z,99594.22
2023-02-19T23:16:19.203Z,99589.66
2023-02-19T23:18:46.259Z,99591.19
2023-02-19T23:21:13.407Z,99589.06
2023-02-19T23:23:44.524Z,99599.25
2023-02-19T23:26:12.903Z,99610.13
2023-02-19T23:28:43.568Z,99607.69
2023-02-19T23:31:11.261Z,99605.13
2023-02-19T23:33:38.521Z,99615.91
2023-02-19T23:36:06.145Z,99619.44
2023-02-19T23:38:33.025Z,99629.47
2023-02-19T23:41:00.301Z,99617.66
2023-02-19T23:43:27.317Z,99608.44
2023-02-19T23:45:54.339Z,99597.69
2023-02-19T23:48:21.253Z,99599.06
2023-02-19T23:50:48.103Z,99597.25
2023-02-19T23:53:14.971Z,99615.06
2023-02-19T23:55:41.835Z,99600.41
2023-02-19T23:58:08.683Z,99588.34
